Time;durP1;ratioP1;P1;durP2;ratioP2;P2;SDS_P1;SDS_P2;PMS_P1;PMS_P2;Temp;Humidity;BMP_temperature;BMP_pressure;BME280_temperature;BME280_humidity;BME280_pressure;Samples;Min_cycle;Max_cycle;Signal;HPM_P1;HPM_P2
2021/12/27 00:01:27;;;;;;;18.40;10.10;;;;;;;3.63;88.24;99992.81;5074832;28;20056;-65
2021/12/27 00:03:56;;;;;;;21.20;10.57;;;;;;;3.89;87.26;99994.22;5072924;28;20079;-65
2021/12/27 00:06:23;;;;;;;20.02;10.15;;;;;;;3.77;87.24;99994.31;5057477;28;20110;-65
2021/12/27 00:08:51;;;;;;;21.30;10.15;;;;;;;3.66;88.04;99983.88;5074495;28;20431;-65
2021/12/27 00:11:18;;;;;;;23.58;10.98;;;;;;;3.69;88.07;99983.59;5074382;28;20037;-65
2021/12/27 00:13:45;;;;;;;19.23;10.00;;;;;;;3.68;88.19;99983.75;5074490;28;20394;-65
2021/12/27 00:16:12;;;;;;;18.00;9.75;;;;;;;3.72;87.98;99978.09;5058192;28;20049;-65
2021/12/27 00:18:39;;;;;;;21.88;10.85;;;;;;;3.67;87.74;99982.06;5076396;28;20119;-65
2021/12/27 00:21:06;;;;;;;20.98;9.70;;;;;;;3.74;87.93;99976.19;5095457;28;20047;-65
2021/12/27 00:23:33;;;;;;;19.63;10.02;;;;;;;3.60;88.35;99984.38;5094499;28;20040;-65
2021/12/27 00:26:00;;;;;;;22.45;11.05;;;;;;;3.58;89.17;99978.41;5095364;28;20048;-65
2021/12/27 00:28:27;;;;;;;22.33;10.93;;;;;;;3.54;89.15;99977.03;5095406;28;20047;-65
2021/12/27 00:30:54;;;;;;;22.45;10.80;;;;;;;3.52;89.28;99973.69;5093635;28;20127;-65
2021/12/27 00:33:21;;;;;;;23.35;11.05;;;;;;;3.57;89.10;99969.72;5084317;28;20094;-65
2021/12/27 00:35:48;;;;;;;22.05;10.02;;;;;;;3.67;88.95;99974.22;5057196;28;20056;-65
2021/12/27 00:38:16;;;;;;;19.48;9.80;;;;;;;3.55;89.14;99976.91;5073820;28;20043;-65
2021/12/27 00:40:43;;;;;;;20.60;10.85;;;;;;;3.61;89.64;99975.56;5075056;28;20162;-65
2021/12/27 00:43:11;;;;;;;20.02;10.57;;;;;;;3.61;89.71;99972.94;5075083;28;20040;-65
2021/12/27 00:45:38;;;;;;;21.48;11.40;;;;;;;3.68;89.64;99970.63;5074739;28;20048;-66
2021/12/27 00:48:05;;;;;;;20.98;10.77;;;;;;;3.76;89.24;99965.56;5073654;28;20083;-65
2021/12/27 00:50:32;;;;;;;19.42;10.88;;;;;;;3.72;89.55;99959.75;5073573;28;20052;-65
2021/12/27 00:52:59;;;;;;;22.33;11.10;;;;;;;3.68;89.61;99963.59;5073783;28;20044;-65
2021/12/27 00:55:25;;;;;;;22.83;10.90;;;;;;;3.61;89.39;99959.81;5074582;28;20134;-65
2021/12/27 00:57:53;;;;;;;21.75;11.85;;;;;;;3.75;89.49;99969.16;5073866;28;20044;-65
2021/12/27 01:00:23;;;;;;;24.75;11.45;;;;;;;3.76;89.28;99960.31;5088505;28;20412;-65
2021/12/27 01:02:50;;;;;;;20.85;10.98;;;;;;;3.68;89.71;99960.16;5093718;28;20050;-65
2021/12/27 01:05:17;;;;;;;21.35;11.60;;;;;;;3.69;89.70;99957.38;5093031;28;20584;-65
2021/12/27 01:07:44;;;;;;;21.83;11.63;;;;;;;3.74;89.63;99949.94;5075809;28;20138;-65
2021/12/27 01:13:05;;;;;;;24.80;11.63;;;;;;;3.86;89.94;99953.34;5151799;27;20123;-66
2021/12/27 01:18:11;;;;;;;21.30;10.60;;;;;;;3.76;89.74;99947.19;5133291;27;20042;-65
2021/12/27 01:20:38;;;;;;;23.40;10.77;;;;;;;3.77;89.58;99957.56;5115070;27;20047;-64
2021/12/27 01:23:04;;;;;;;21.88;11.20;;;;;;;3.76;89.66;99952.44;5132764;27;20122;-66
2021/12/27 01:25:31;;;;;;;22.42;11.68;;;;;;;3.79;89.67;99955.66;5132655;27;20042;-65
2021/12/27 01:27:58;;;;;;;20.58;10.98;;;;;;;3.73;89.38;99958.78;5151332;27;20043;-65
2021/12/27 01:30:25;;;;;;;20.95;11.63;;;;;;;3.65;90.24;99953.34;5122795;27;20548;-65
2021/12/27 01:32:57;;;;;;;24.65;11.75;;;;;;;3.82;89.51;99958.03;5112207;28;20063;-65
2021/12/27 01:35:24;;;;;;;21.85;11.75;;;;;;;3.68;89.88;99952.28;5128291;27;20042;-65
2021/12/27 01:37:53;;;;;;;21.48;10.85;;;;;;;3.83;89.36;99951.78;5141159;27;20039;-66
2021/12/27 01:40:25;;;;;;;22.38;12.02;;;;;;;3.80;89.97;99946.81;5115781;27;20097;-66
2021/12/27 01:43:11;;;;;;;;;;;;;;;3.70;89.98;99947.72;5132742;27;20041;-65
2021/12/27 01:45:42;;;;;;;19.58;10.45;;;;;;;3.79;89.35;99950.41;5150934;27;19923;-65
2021/12/27 01:48:11;;;;;;;22.55;11.18;;;;;;;3.92;89.94;99941.50;5116118;27;20141;-66
2021/12/27 01:50:42;;;;;;;22.80;11.27;;;;;;;3.74;89.77;99946.50;5132448;27;20047;-66
2021/12/27 01:53:11;;;;;;;21.33;11.18;;;;;;;3.79;89.97;99944.31;5151020;27;20462;-65
2021/12/27 01:55:38;;;;;;;21.55;11.18;;;;;;;3.80;90.24;99943.34;5150907;27;20048;-65
2021/12/27 01:58:05;;;;;;;23.25;11.73;;;;;;;3.91;89.92;99937.19;5150892;27;20043;-65
2021/12/27 02:00:34;;;;;;;22.30;11.60;;;;;;;3.89;89.91;99931.25;5150686;27;20126;-65
2021/12/27 02:03:03;;;;;;;24.42;12.50;;;;;;;3.95;89.70;99922.88;5132211;27;20038;-65
2021/12/27 02:05:31;;;;;;;23.23;11.77;;;;;;;3.91;89.64;99922.31;5113975;27;20046;-65
2021/12/27 02:07:58;;;;;;;22.38;11.57;;;;;;;4.03;89.38;99915.16;5132170;27;20035;-65
2021/12/27 02:10:25;;;;;;;23.58;12.27;;;;;;;3.94;88.97;99916.78;5132268;27;20047;-65
2021/12/27 02:12:52;;;;;;;29.55;11.93;;;;;;;3.94;89.06;99923.81;5115238;27;20533;-65
2021/12/27 02:15:18;;;;;;;21.65;11.75;;;;;;;4.06;88.87;99927.16;5115059;27;20047;-65
2021/12/27 02:17:45;;;;;;;23.08;11.25;;;;;;;3.97;89.24;99928.81;5132150;27;20511;-65
2021/12/27 02:22:59;;;;;;;20.20;11.32;;;;;;;4.04;89.06;99929.94;5131048;27;20375;-64
2021/12/27 02:25:28;;;;;;;23.63;10.57;;;;;;;3.92;89.03;99938.88;5130033;28;20043;-66
2021/12/27 02:27:56;;;;;;;19.73;10.23;;;;;;;3.91;89.73;99924.06;5134083;27;20047;-66
2021/12/27 02:30:23;;;;;;;22.02;11.10;;;;;;;3.87;89.42;99930.53;5098392;28;20040;-63
2021/12/27 02:32:53;;;;;;;23.08;11.57;;;;;;;3.91;89.98;99930.16;5111064;28;20550;-65
2021/12/27 02:35:24;;;;;;;20.15;10.90;;;;;;;3.93;90.03;99915.13;5092348;28;20039;-64
2021/12/27 02:37:53;;;;;;;19.92;10.80;;;;;;;3.86;89.84;99916.59;5091022;28;20046;-64
2021/12/27 02:40:23;;;;;;;22.75;11.40;;;;;;;3.87;89.99;99904.31;5110197;28;20047;-66
2021/12/27 02:45:39;;;;;;;22.35;11.70;;;;;;;3.92;89.83;99920.50;5099113;27;20389;-65
2021/12/27 02:48:08;;;;;;;22.90;11.52;;;;;;;3.99;89.91;99916.38;5072667;28;20060;-65
2021/12/27 02:50:36;;;;;;;20.50;10.80;;;;;;;3.90;90.12;99910.13;5105864;28;20481;-66
2021/12/27 02:53:06;;;;;;;23.02;11.30;;;;;;;3.90;89.63;99904.88;5089930;28;20044;-66
2021/12/27 02:55:33;;;;;;;19.23;10.85;;;;;;;4.02;90.25;99905.59;5088503;28;20492;-66
2021/12/27 02:58:00;;;;;;;21.65;10.80;;;;;;;4.07;90.00;99908.66;5090168;28;20131;-65
2021/12/27 03:00:44;;;;;;;;;;;;;;;3.94;90.15;99903.66;5071971;28;20045;-65
2021/12/27 03:03:11;;;;;;;19.85;9.82;;;;;;;3.97;90.29;99899.94;5069781;28;19921;-65
2021/12/27 03:05:38;;;;;;;20.52;10.68;;;;;;;3.88;90.09;99908.59;5083068;28;20500;-65
2021/12/27 03:08:05;;;;;;;22.85;11.02;;;;;;;3.83;90.24;99901.94;5069730;28;20504;-65
2021/12/27 03:10:34;;;;;;;20.83;11.15;;;;;;;3.92;90.41;99904.75;5085326;28;20052;-65
2021/12/27 03:13:02;;;;;;;20.85;10.48;;;;;;;4.08;89.70;99901.66;5062071;28;20067;-65
2021/12/27 03:15:29;;;;;;;26.00;11.77;;;;;;;4.04;90.78;99896.66;5069477;28;20043;-66
2021/12/27 03:17:56;;;;;;;23.38;11.82;;;;;;;3.95;89.58;99892.19;5068147;28;20048;-65
2021/12/27 03:20:25;;;;;;;20.50;11.07;;;;;;;4.04;90.11;99887.97;5069316;28;20051;-65
2021/12/27 03:22:53;;;;;;;21.15;11.35;;;;;;;4.06;90.15;99879.91;5069439;28;20119;-65
2021/12/27 03:25:23;;;;;;;21.25;11.25;;;;;;;4.04;89.93;99880.91;5067938;28;20643;-65
2021/12/27 03:27:51;;;;;;;23.67;11.70;;;;;;;3.97;89.41;99871.91;5051573;28;20055;-66
2021/12/27 03:30:21;;;;;;;20.60;10.52;;;;;;;3.99;89.80;99883.09;5084539;28;20440;-66
2021/12/27 03:32:49;;;;;;;19.58;10.73;;;;;;;4.08;89.43;99875.41;5069169;28;20139;-65
2021/12/27 03:35:25;;;;;;;24.73;11.50;;;;;;;4.07;89.86;99878.97;5049853;28;20048;-66
2021/12/27 03:37:55;;;;;;;21.95;11.73;;;;;;;4.05;89.78;99871.22;5065784;28;20044;-66
2021/12/27 03:40:22;;;;;;;22.83;10.90;;;;;;;4.10;89.87;99879.53;5087383;28;20052;-65
2021/12/27 03:42:50;;;;;;;21.95;11.02;;;;;;;4.13;89.68;99875.81;5088833;28;20044;-66
2021/12/27 03:45:21;;;;;;;20.30;10.57;;;;;;;3.99;89.86;99877.84;5070524;28;20044;-66
2021/12/27 03:47:49;;;;;;;;;;;;;;;4.04;89.94;99878.28;5075831;28;20075;-65
2021/12/27 03:50:17;;;;;;;19.95;9.93;;;;;;;3.96;90.34;99872.84;5088713;28;20006;-66
2021/12/27 03:52:45;;;;;;;21.70;10.40;;;;;;;4.06;90.21;99880.78;5071021;28;20475;-66
2021/12/27 03:55:12;;;;;;;20.55;10.05;;;;;;;3.99;90.09;99877.03;5085257;28;20105;-66
2021/12/27 03:57:42;;;;;;;19.92;10.05;;;;;;;3.98;89.77;99880.59;5073958;28;20044;-66
2021/12/27 04:02:54;;;;;;;23.70;10.73;;;;;;;4.19;89.72;99881.38;5055445;28;20125;-65
2021/12/27 04:05:22;;;;;;;21.45;10.45;;;;;;;4.06;89.49;99877.31;5053474;28;20033;-65
2021/12/27 04:07:57;;;;;;;20.92;11.02;;;;;;;4.13;89.89;99878.44;5054957;28;20041;-66
2021/12/27 04:10:24;;;;;;;20.55;10.68;;;;;;;4.19;90.30;99878.72;5055562;28;20063;-65
2021/12/27 04:12:50;;;;;;;18.58;9.75;;;;;;;4.24;89.69;99880.97;5070576;28;20091;-66
2021/12/27 04:15:17;;;;;;;22.15;10.82;;;;;;;4.21;89.46;99862.84;5054945;28;20497;-65
2021/12/27 04:17:44;;;;;;;22.35;10.18;;;;;;;4.23;89.77;99867.00;5034168;28;20108;-66
2021/12/27 04:20:11;;;;;;;20.05;10.30;;;;;;;4.13;89.58;99868.78;5033868;28;20091;-65
2021/12/27 04:22:37;;;;;;;21.02;10.88;;;;;;;4.18;90.02;99857.88;5034737;28;20563;-65
2021/12/27 04:25:12;;;;;;;19.83;10.40;;;;;;;4.27;89.77;99856.22;5049092;28;20048;-65
2021/12/27 04:27:39;;;;;;;19.45;10.43;;;;;;;4.24;89.62;99849.47;5043403;28;20102;-66
2021/12/27 04:30:06;;;;;;;20.65;10.60;;;;;;;4.25;89.84;99842.41;5054093;28;20041;-68
2021/12/27 04:32:32;;;;;;;19.92;10.93;;;;;;;4.33;89.94;99845.19;5069559;28;20041;-65
2021/12/27 04:34:59;;;;;;;21.50;10.52;;;;;;;4.38;89.82;99838.56;5054555;28;20126;-66
2021/12/27 04:37:29;;;;;;;21.92;11.43;;;;;;;4.32;89.78;99830.41;5069836;28;20045;-66
2021/12/27 04:39:57;;;;;;;22.58;11.55;;;;;;;4.41;89.32;99837.47;5053221;28;20496;-65
2021/12/27 04:42:25;;;;;;;21.55;10.25;;;;;;;4.42;89.23;99842.59;5075417;28;20444;-66
2021/12/27 04:44:52;;;;;;;19.08;10.55;;;;;;;4.40;89.85;99839.28;5055400;28;20598;-65
2021/12/27 04:47:18;;;;;;;24.10;10.85;;;;;;;4.48;89.86;99840.38;5054502;28;20036;-65
2021/12/27 04:49:45;;;;;;;21.55;10.88;;;;;;;4.41;90.14;99834.84;5054158;28;20051;-65
2021/12/27 04:52:13;;;;;;;23.50;11.13;;;;;;;4.38;90.53;99833.31;5054333;28;20119;-66
2021/12/27 04:54:40;;;;;;;19.40;10.38;;;;;;;4.49;89.77;99837.59;5069680;28;20451;-65
2021/12/27 04:57:07;;;;;;;20.98;11.15;;;;;;;4.48;89.34;99830.69;5060158;28;20048;-66
2021/12/27 04:59:34;;;;;;;21.92;10.70;;;;;;;4.43;90.09;99828.47;5054131;28;20048;-66
2021/12/27 05:02:03;;;;;;;20.27;9.98;;;;;;;4.42;89.74;99824.19;5069561;28;20509;-65
2021/12/27 05:04:30;;;;;;;18.23;10.50;;;;;;;4.45;89.98;99827.50;5051223;28;20578;-65
2021/12/27 05:06:57;;;;;;;22.20;10.75;;;;;;;4.38;89.92;99822.81;5023119;28;20099;-65
2021/12/27 05:09:23;;;;;;;20.67;9.93;;;;;;;4.49;89.39;99821.84;5032977;28;20045;-65
2021/12/27 05:11:50;;;;;;;20.55;10.80;;;;;;;4.47;89.94;99818.53;5052937;28;20041;-65
2021/12/27 05:14:17;;;;;;;17.90;8.93;;;;;;;4.51;89.71;99816.44;5036542;28;20491;-65
2021/12/27 05:16:44;;;;;;;21.73;9.93;;;;;;;4.51;89.59;99817.31;5053671;28;20390;-66
2021/12/27 05:19:11;;;;;;;19.40;10.02;;;;;;;4.66;89.60;99817.72;5034676;28;20405;-66
2021/12/27 05:21:38;;;;;;;17.88;9.50;;;;;;;4.62;89.31;99805.84;5053885;28;20053;-66
2021/12/27 05:24:05;;;;;;;19.27;9.68;;;;;;;4.45;89.48;99801.25;5018094;28;20056;-66
2021/12/27 05:26:32;;;;;;;20.15;10.15;;;;;;;4.45;89.57;99809.13;5068679;28;20040;-66
2021/12/27 05:28:58;;;;;;;19.40;9.77;;;;;;;4.53;89.37;99806.63;5036217;28;20037;-65
2021/12/27 05:31:25;;;;;;;20.85;10.10;;;;;;;4.40;90.07;99815.63;5050323;28;20048;-66
2021/12/27 05:33:52;;;;;;;20.50;10.35;;;;;;;4.49;89.80;99813.13;5052390;28;20052;-66
2021/12/27 05:36:18;;;;;;;18.40;9.88;;;;;;;4.46;90.01;99809.00;5052352;28;20087;-66
2021/12/27 05:38:45;;;;;;;23.17;10.02;;;;;;;4.52;90.06;99797.13;5054938;28;20135;-66
2021/12/27 05:41:12;;;;;;;20.58;9.88;;;;;;;4.45;89.93;99799.44;5073147;28;20091;-66
2021/12/27 05:43:39;;;;;;;18.02;9.80;;;;;;;4.45;90.03;99790.75;5054747;28;20056;-66
2021/12/27 05:46:06;;;;;;;20.90;9.45;;;;;;;4.45;89.85;99796.81;5063180;28;20443;-65
2021/12/27 05:48:32;;;;;;;19.88;9.38;;;;;;;4.53;89.38;99796.13;5088753;28;20411;-65
2021/12/27 05:50:59;;;;;;;19.80;10.43;;;;;;;4.54;89.78;99792.53;5071940;28;20566;-66
2021/12/27 05:53:27;;;;;;;20.85;10.18;;;;;;;4.55;89.70;99792.41;5073122;28;20048;-66
2021/12/27 05:55:53;;;;;;;19.77;9.82;;;;;;;4.47;90.03;99788.81;5073119;28;20044;-65
2021/12/27 05:58:20;;;;;;;18.48;9.60;;;;;;;4.53;89.96;99789.09;5073056;28;20032;-66
2021/12/27 06:00:48;;;;;;;19.05;9.85;;;;;;;4.57;89.89;99789.66;5054061;28;20119;-65
2021/12/27 06:03:15;;;;;;;19.33;9.80;;;;;;;4.65;89.81;99791.59;5051426;28;20048;-66
2021/12/27 06:05:42;;;;;;;18.83;9.48;;;;;;;4.76;89.10;99794.06;5044139;28;20119;-66
2021/12/27 06:08:09;;;;;;;21.48;9.38;;;;;;;4.75;89.69;99798.50;5052623;28;20501;-66
2021/12/27 06:10:36;;;;;;;17.33;9.25;;;;;;;4.66;88.96;99798.47;5052649;28;20493;-66
2021/12/27 06:13:03;;;;;;;19.08;10.18;;;;;;;4.72;89.65;99798.75;5052536;28;20041;-66
2021/12/27 06:15:30;;;;;;;19.77;10.25;;;;;;;4.60;89.36;99797.22;5052784;28;20041;-66
2021/12/27 06:17:56;;;;;;;19.70;9.13;;;;;;;4.58;89.89;99791.28;5052649;28;20128;-66
2021/12/27 06:20:23;;;;;;;20.20;10.23;;;;;;;4.68;89.76;99792.13;5052756;28;20037;-66
2021/12/27 06:22:53;;;;;;;17.27;9.60;;;;;;;4.68;89.46;99788.69;5068091;28;20047;-66
2021/12/27 06:25:20;;;;;;;19.63;10.25;;;;;;;4.68;89.58;99786.88;5051004;28;20489;-65
2021/12/27 06:27:46;;;;;;;19.38;9.60;;;;;;;4.79;89.56;99778.03;5051437;28;20059;-66
2021/12/27 06:30:15;;;;;;;18.25;10.13;;;;;;;4.77;89.42;99785.22;5052699;28;20513;-66
2021/12/27 06:32:43;;;;;;;20.70;10.45;;;;;;;4.56;90.12;99788.81;5052838;28;20056;-66
2021/12/27 06:35:12;;;;;;;19.52;10.48;;;;;;;4.71;89.58;99791.88;5050625;28;20040;-66
2021/12/27 06:37:40;;;;;;;19.75;9.98;;;;;;;4.66;90.14;99794.06;5051363;28;20501;-66
2021/12/27 06:40:09;;;;;;;18.70;9.75;;;;;;;4.63;90.14;99789.09;5052429;28;20041;-66
2021/12/27 06:42:36;;;;;;;19.80;10.15;;;;;;;4.70;89.68;99795.44;5052572;28;20447;-66
2021/12/27 06:45:04;;;;;;;17.58;9.52;;;;;;;4.70;90.03;99797.25;5052072;28;20041;-66
2021/12/27 06:47:31;;;;;;;19.90;10.55;;;;;;;4.69;89.55;99791.16;5038901;28;20136;-66
2021/12/27 06:49:58;;;;;;;21.67;10.75;;;;;;;4.78;90.04;99786.84;5051303;28;20041;-66
2021/12/27 06:52:25;;;;;;;19.98;10.02;;;;;;;4.76;89.55;99789.63;5054079;28;20049;-65
2021/12/27 06:54:53;;;;;;;19.80;9.88;;;;;;;4.79;89.58;99788.53;5059244;28;20090;-66
2021/12/27 06:57:20;;;;;;;19.95;9.90;;;;;;;4.74;89.65;99786.31;5051447;28;20041;-65
2021/12/27 06:59:47;;;;;;;20.00;10.43;;;;;;;4.76;89.49;99784.38;5031194;28;20055;-66
2021/12/27 07:02:14;;;;;;;19.90;9.93;;;;;;;4.86;89.24;99776.50;5031279;28;20045;-66
2021/12/27 07:04:41;;;;;;;19.58;9.32;;;;;;;4.95;89.25;99782.72;5029588;28;20502;-66
2021/12/27 07:07:08;;;;;;;18.77;10.00;;;;;;;4.87;88.87;99783.38;5047657;28;20054;-65
2021/12/27 07:09:36;;;;;;;19.40;10.63;;;;;;;4.93;89.11;99782.84;5048026;28;20042;-65
2021/12/27 07:12:03;;;;;;;19.55;9.73;;;;;;;4.78;89.31;99778.97;5032137;28;20099;-65
2021/12/27 07:14:30;;;;;;;19.70;9.48;;;;;;;4.75;89.10;99782.72;5032237;28;20041;-65
2021/12/27 07:16:57;;;;;;;19.90;10.00;;;;;;;4.85;90.29;99782.69;5030991;28;20493;-66
2021/12/27 07:19:24;;;;;;;17.63;9.13;;;;;;;4.84;89.25;99773.19;5066432;28;20057;-65
2021/12/27 07:21:50;;;;;;;19.35;9.75;;;;;;;4.85;89.50;99774.00;5050877;28;20044;-66
2021/12/27 07:24:17;;;;;;;19.48;9.75;;;;;;;4.86;89.43;99778.25;5050887;28;20505;-66
2021/12/27 07:26:44;;;;;;;20.33;9.70;;;;;;;4.90;89.48;99780.47;5050784;28;20044;-65
2021/12/27 07:29:13;;;;;;;21.02;9.90;;;;;;;4.91;89.15;99773.41;5052181;28;20052;-65
2021/12/27 07:31:40;;;;;;;16.52;9.07;;;;;;;4.97;89.09;99775.50;5052841;28;20037;-66
2021/12/27 07:34:07;;;;;;;20.08;9.23;;;;;;;4.86;89.04;99773.88;5071165;28;20037;-66
2021/12/27 07:36:34;;;;;;;18.52;9.82;;;;;;;4.91;89.26;99776.91;5070883;28;20816;-66
2021/12/27 07:39:00;;;;;;;19.52;9.85;;;;;;;4.94;88.96;99784.47;5053980;28;20447;-66
2021/12/27 07:41:27;;;;;;;19.90;10.23;;;;;;;4.92;89.29;99772.47;5074661;28;20045;-66
2021/12/27 07:43:56;;;;;;;18.40;9.98;;;;;;;4.89;88.88;99768.31;5073772;28;20451;-65
2021/12/27 07:46:24;;;;;;;20.92;10.15;;;;;;;4.84;88.86;99777.59;5075299;28;20086;-66
2021/12/27 07:48:51;;;;;;;18.10;9.55;;;;;;;4.84;89.86;99778.44;5074840;28;20051;-66
2021/12/27 07:51:18;;;;;;;19.75;9.55;;;;;;;4.90;89.38;99777.03;5074108;28;20037;-66
2021/12/27 07:53:44;;;;;;;20.38;9.30;;;;;;;4.80;89.02;99767.38;5075409;28;20052;-66
2021/12/27 07:56:12;;;;;;;19.15;9.50;;;;;;;4.88;89.35;99773.72;5074060;28;20041;-66
2021/12/27 07:58:39;;;;;;;19.25;9.75;;;;;;;4.77;89.80;99765.00;5073640;28;20063;-66
2021/12/27 08:01:06;;;;;;;25.55;11.27;;;;;;;4.88;89.06;99761.41;5059435;28;20074;-66
2021/12/27 08:03:33;;;;;;;21.08;9.80;;;;;;;4.76;89.67;99754.66;5073294;28;20049;-66
2021/12/27 08:06:00;;;;;;;18.00;9.18;;;;;;;4.83;89.59;99754.91;5070399;28;20484;-66
2021/12/27 08:08:26;;;;;;;21.50;9.50;;;;;;;4.86;89.05;99759.88;5054233;28;20053;-66
2021/12/27 08:10:54;;;;;;;18.38;8.95;;;;;;;4.82;89.72;99764.59;5055128;28;20053;-66
2021/12/27 08:13:22;;;;;;;16.88;9.35;;;;;;;4.84;89.03;99765.28;5020885;28;20404;-65
2021/12/27 08:15:48;;;;;;;16.65;8.68;;;;;;;4.87;88.59;99761.53;5053717;28;20229;-66
2021/12/27 08:18:15;;;;;;;22.02;10.70;;;;;;;4.65;89.11;99765.31;5054802;28;20140;-65
2021/12/27 08:20:42;;;;;;;21.10;10.70;;;;;;;4.73;89.27;99754.91;5053887;28;20412;-66
2021/12/27 08:23:09;;;;;;;19.52;9.77;;;;;;;4.74;89.19;99761.84;5070360;28;20049;-66
2021/12/27 08:25:35;;;;;;;17.33;9.82;;;;;;;4.61;89.40;99756.88;5053452;28;20460;-65
2021/12/27 08:28:03;;;;;;;19.63;9.48;;;;;;;4.72;89.36;99758.53;5053819;28;20136;-66
2021/12/27 08:30:31;;;;;;;19.88;9.73;;;;;;;4.69;89.28;99746.47;5051620;28;20061;-65
2021/12/27 08:32:59;;;;;;;17.05;9.15;;;;;;;4.65;89.69;99744.28;5054811;28;20124;-66
2021/12/27 08:35:26;;;;;;;16.75;9.07;;;;;;;4.59;89.87;99745.69;5053318;28;20120;-66
2021/12/27 08:37:53;;;;;;;21.58;9.95;;;;;;;4.76;89.72;99739.69;5070106;28;20044;-66
2021/12/27 08:40:20;;;;;;;17.30;9.25;;;;;;;4.75;89.45;99743.31;5053353;28;20041;-66
2021/12/27 08:42:47;;;;;;;16.95;8.95;;;;;;;4.88;89.08;99742.19;5053263;28;20041;-66
2021/12/27 08:45:14;;;;;;;19.80;9.45;;;;;;;4.99;89.15;99742.03;5052476;28;20046;-66
2021/12/27 08:47:41;;;;;;;18.20;9.52;;;;;;;4.90;88.53;99738.44;5053536;28;20132;-66
2021/12/27 08:50:08;;;;;;;17.75;9.02;;;;;;;4.94;88.88;99741.59;5069815;28;20048;-66
2021/12/27 08:52:35;;;;;;;17.80;9.32;;;;;;;5.09;88.41;99737.53;5054215;28;20063;-66
2021/12/27 08:55:03;;;;;;;17.13;9.38;;;;;;;5.12;88.90;99733.81;5053260;28;20041;-66
2021/12/27 08:57:32;;;;;;;17.10;8.48;;;;;;;5.21;88.97;99732.94;5052908;28;20036;-66
2021/12/27 08:59:59;;;;;;;17.80;9.35;;;;;;;5.19;88.73;99738.34;5053725;28;20049;-66
2021/12/27 09:02:26;;;;;;;17.63;9.23;;;;;;;5.21;88.28;99732.13;5054311;28;20041;-66
2021/12/27 09:05:05;;;;;;;17.80;8.73;;;;;;;5.24;88.23;99744.97;5056346;28;20048;-65
2021/12/27 09:07:32;;;;;;;16.35;8.55;;;;;;;5.28;88.29;99733.22;5054079;28;20413;-66
2021/12/27 09:09:58;;;;;;;18.27;9.05;;;;;;;5.17;89.11;99734.22;5053127;28;20049;-66
2021/12/27 09:12:25;;;;;;;20.17;9.68;;;;;;;5.41;88.28;99727.63;5052504;28;20072;-66
2021/12/27 09:14:52;;;;;;;16.95;9.43;;;;;;;5.38;88.54;99721.69;5062899;28;20053;-66
2021/12/27 09:17:19;;;;;;;15.40;8.45;;;;;;;5.44;88.09;99724.69;5036434;28;20055;-66
2021/12/27 09:19:46;;;;;;;19.20;9.05;;;;;;;5.36;88.45;99728.03;5045835;28;20053;-67
2021/12/27 09:22:15;;;;;;;18.38;9.65;;;;;;;5.43;88.79;99726.50;5071848;28;20068;-66
2021/12/27 09:24:42;;;;;;;18.45;8.60;;;;;;;5.51;88.11;99716.09;5052021;28;20452;-66
2021/12/27 09:27:09;;;;;;;18.92;9.60;;;;;;;5.60;88.32;99716.16;5049492;28;20038;-66
2021/12/27 09:29:35;;;;;;;16.70;9.32;;;;;;;5.47;88.04;99719.97;5046058;28;20108;-65
2021/12/27 09:32:03;;;;;;;19.77;9.13;;;;;;;5.74;87.32;99710.41;5019408;28;20044;-65
2021/12/27 09:34:30;;;;;;;17.67;9.65;;;;;;;5.67;87.70;99722.50;5050073;28;20522;-65
2021/12/27 09:36:57;;;;;;;18.20;9.27;;;;;;;5.73;87.28;99728.00;5050112;28;20064;-67
2021/12/27 09:39:23;;;;;;;18.08;8.93;;;;;;;5.79;87.43;99725.78;5048120;28;20103;-66
2021/12/27 09:41:50;;;;;;;17.00;9.27;;;;;;;5.82;87.73;99721.03;5068402;28;20500;-66
2021/12/27 09:44:17;;;;;;;19.25;9.20;;;;;;;5.73;88.31;99721.91;5055295;28;20076;-66
2021/12/27 09:46:45;;;;;;;20.20;9.85;;;;;;;5.69;87.95;99717.91;5071940;28;20446;-66
2021/12/27 09:49:15;;;;;;;17.10;9.20;;;;;;;5.78;87.93;99722.28;5072418;28;20048;-65
2021/12/27 09:51:42;;;;;;;17.20;8.98;;;;;;;5.93;87.60;99718.19;5060608;28;20587;-65
2021/12/27 09:54:09;;;;;;;17.67;9.18;;;;;;;6.00;88.01;99720.25;5071730;28;20098;-65
2021/12/27 09:56:36;;;;;;;21.02;9.35;;;;;;;6.04;87.54;99711.06;5055124;28;20049;-65
2021/12/27 09:59:06;;;;;;;17.70;9.48;;;;;;;6.14;86.65;99714.47;5068328;28;20405;-65
2021/12/27 10:01:34;;;;;;;17.80;8.73;;;;;;;6.05;86.67;99703.00;5052005;28;20048;-65
2021/12/27 10:04:02;;;;;;;18.63;9.50;;;;;;;6.04;86.85;99704.00;5051445;28;20053;-65
2021/12/27 10:06:31;;;;;;;17.77;9.10;;;;;;;6.04;87.80;99704.00;5052293;28;20055;-65
2021/12/27 10:09:05;;;;;;;17.00;8.55;;;;;;;6.12;87.53;99704.06;5053229;28;20049;-65
2021/12/27 10:11:36;;;;;;;16.75;9.38;;;;;;;6.25;87.40;99703.69;5059282;28;20041;-65
2021/12/27 10:14:08;;;;;;;19.25;9.85;;;;;;;6.08;88.28;99705.34;5052919;28;20044;-65
2021/12/27 10:16:42;;;;;;;17.88;9.23;;;;;;;6.14;87.79;99706.56;5052844;28;20104;-65
2021/12/27 10:19:10;;;;;;;20.70;9.82;;;;;;;6.23;88.24;99699.56;5051411;28;20132;-65
2021/12/27 10:21:42;;;;;;;18.35;9.38;;;;;;;6.20;87.72;99697.22;5068053;28;20045;-65
2021/12/27 10:24:14;;;;;;;18.42;9.23;;;;;;;6.18;88.55;99694.75;5067659;28;20137;-65
2021/12/27 10:26:42;;;;;;;;;;;;;;;6.26;86.96;99688.75;5053027;28;20500;-64
2021/12/27 10:29:15;;;;;;;19.67;9.20;;;;;;;6.13;88.75;99683.81;5051570;28;19947;-65
2021/12/27 10:32:04;;;;;;;19.20;9.18;;;;;;;6.40;88.38;99680.25;5064308;28;20048;-65
2021/12/27 10:34:35;;;;;;;18.83;9.75;;;;;;;6.57;87.57;99667.22;5031824;28;20045;-65
2021/12/27 10:40:02;;;;;;;19.52;9.63;;;;;;;6.80;86.82;99664.88;5098982;27;20182;-66
2021/12/27 10:42:48;;;;;;;18.60;9.50;;;;;;;6.96;86.33;99661.53;5087550;28;20041;-66
2021/12/27 10:45:21;;;;;;;18.73;8.77;;;;;;;6.87;85.80;99650.91;5037105;28;20041;-66
2021/12/27 10:47:52;;;;;;;16.80;8.82;;;;;;;7.14;85.73;99661.44;5064236;28;20615;-66
2021/12/27 10:50:23;;;;;;;14.23;8.00;;;;;;;7.10;85.07;99659.13;5039658;28;20139;-66
2021/12/27 10:52:59;;;;;;;17.40;8.00;;;;;;;6.98;85.05;99657.75;5041628;28;20319;-66
2021/12/27 10:55:46;;;;;;;18.20;8.57;;;;;;;7.06;85.50;99655.16;5049428;28;20276;-66
2021/12/27 10:58:29;;;;;;;14.63;7.43;;;;;;;7.02;85.76;99650.34;5029232;28;20037;-66
2021/12/27 11:01:01;;;;;;;16.55;7.60;;;;;;;6.98;85.85;99651.66;5067295;28;20509;-65
2021/12/27 11:03:32;;;;;;;14.95;7.78;;;;;;;6.96;85.77;99646.53;5067472;28;20037;-67
2021/12/27 11:06:02;;;;;;;15.80;7.72;;;;;;;6.85;85.99;99657.34;5083956;28;20091;-65
2021/12/27 11:08:30;;;;;;;15.07;7.13;;;;;;;6.89;86.16;99650.78;5046883;28;20509;-65
2021/12/27 11:10:57;;;;;;;15.82;8.35;;;;;;;6.91;85.99;99651.44;5063447;28;20060;-66
2021/12/27 11:13:26;;;;;;;15.93;8.27;;;;;;;6.83;86.03;99654.03;5015608;28;20044;-66
2021/12/27 11:15:54;;;;;;;15.73;7.80;;;;;;;6.87;86.59;99642.19;5080230;28;20044;-65
2021/12/27 11:18:20;;;;;;;14.65;7.28;;;;;;;7.03;85.66;99642.28;5059381;28;20041;-66
2021/12/27 11:20:56;;;;;;;16.33;8.55;;;;;;;6.73;86.49;99641.81;5084915;28;20033;-65
2021/12/27 11:23:25;;;;;;;15.23;7.32;;;;;;;6.78;86.50;99651.88;5084197;28;20052;-65
2021/12/27 11:26:03;;;;;;;14.73;7.32;;;;;;;6.73;87.58;99652.34;5059101;28;20060;-65
2021/12/27 11:28:33;;;;;;;13.75;7.50;;;;;;;6.65;86.96;99640.94;5057457;28;20033;-66
2021/12/27 11:31:07;;;;;;;18.17;8.63;;;;;;;6.59;87.62;99639.75;5049425;28;20521;-66
2021/12/27 11:33:55;;;;;;;16.85;8.40;;;;;;;6.73;87.60;99635.69;5070235;28;20037;-65
2021/12/27 11:36:24;;;;;;;15.35;7.95;;;;;;;6.68;87.40;99630.06;5019569;28;20048;-65
2021/12/27 11:38:51;;;;;;;15.48;8.68;;;;;;;6.77;87.46;99623.88;5047515;28;20555;-66
2021/12/27 11:41:31;;;;;;;15.85;8.23;;;;;;;6.83;87.02;99623.22;5037927;28;20041;-66
2021/12/27 11:44:03;;;;;;;16.92;8.15;;;;;;;6.86;86.76;99622.09;5047528;28;20045;-65
2021/12/27 11:46:51;;;;;;;16.40;8.93;;;;;;;6.85;87.05;99608.06;5063380;28;20111;-65
2021/12/27 11:49:35;;;;;;;19.05;8.85;;;;;;;7.10;86.56;99605.56;5046411;28;20033;-66
2021/12/27 11:52:24;;;;;;;16.63;8.63;;;;;;;7.05;87.04;99608.66;5038605;28;20540;-66
2021/12/27 11:54:59;;;;;;;17.33;8.57;;;;;;;7.09;86.71;99595.97;5085909;28;20041;-66